Terminal Aerodrome Forecast
Issued by NWS Wichita, KS

Home | Current Version | Previous Version | Text Only | Print | Product List | Glossary On
Versions: 1 2 3 4 5 6 7 8 9 10 11 12 13 14 15 16
000
FTUS43 KICT 231100
TAFICT
TAF
KICT 231125Z 2312/2412 04005KT 6SM BR FEW250
     FM231500 04008KT P6SM SCT250
     FM240000 10005KT P6SM SCT250
     FM241000 13005KT 6SM BR SCT250=

USA.gov is the U.S. government's official web portal to all federal, state and local government web resources and services.